.
WxDataArchive / Data Records for 2013-08-22
2013-08-21 August 2013 2013-08-23

Data Records for Thursday, 22 August 2013

Time	Temp	Chill	HIndex	Humid	Dewpt	 Wind 	HiWind	WindDir	Rain 	Barom 
-----	----	-----	------	-----	-----	------	------	-------	-----	----- 
00:00	70.9	70.9	70.9	88	67.2	0	0	---	0.00	30.031 
00:05	70.8	70.8	70.8	88	67.1	0	0	---	0.00	30.031 
00:10	70.8	70.8	70.8	88	67.1	0	0	---	0.00	30.031 
00:15	70.6	70.6	70.6	88	66.9	0	0	---	0.00	30.027 
00:20	70.6	70.6	70.6	89	67.2	0	0	---	0.00	30.027 
00:25	70.4	70.4	70.4	89	67.0	0	0	---	0.00	30.027 
00:30	70.4	70.4	70.4	89	67.0	0	0	---	0.00	30.025 
00:35	70.4	70.4	70.4	89	67.0	0	0	---	0.00	30.025 
00:40	70.4	70.4	70.4	89	67.0	0	0	---	0.00	30.025 
00:45	70.4	70.4	70.4	89	67.0	0	0	---	0.00	30.025 
00:50	70.4	70.4	70.4	89	67.0	0	0	---	0.00	30.025 
00:55	70.4	70.4	70.4	89	67.0	0	0	---	0.00	30.025 
01:00	70.4	70.4	70.4	89	67.0	0	0	---	0.00	30.023 
01:05	70.4	70.4	70.4	89	67.0	0	0	---	0.00	30.023 
01:10	70.4	70.4	70.4	89	67.0	0	0	---	0.00	30.023 
01:15	70.4	70.4	70.4	89	67.0	0	0	---	0.00	30.027 
01:20	70.4	70.4	70.4	88	66.7	0	0	---	0.00	30.027 
01:25	70.4	70.4	70.4	88	66.7	0	0	---	0.00	30.027 
01:30	70.3	70.3	70.3	88	66.6	0	0	---	0.00	30.030 
01:35	70.3	70.3	70.3	88	66.6	0	0	---	0.00	30.030 
01:40	70.3	70.3	70.3	88	66.6	0	0	---	0.00	30.030 
01:45	70.1	70.1	70.1	88	66.4	0	0	---	0.00	30.027 
01:50	69.9	69.9	69.9	88	66.2	0	0	---	0.00	30.027 
01:55	69.9	69.9	69.9	88	66.2	0	0	---	0.00	30.027 
02:00	69.9	69.9	69.9	88	66.2	0	0	---	0.00	30.030 
02:05	69.9	69.9	69.9	88	66.2	0	0	---	0.00	30.030 
02:10	69.8	69.8	69.8	88	66.1	0	0	---	0.00	30.030 
02:15	69.8	69.8	69.8	88	66.1	0	0	---	0.00	30.026 
02:20	69.8	69.8	69.8	88	66.1	0	0	---	0.00	30.026 
02:25	69.8	69.8	69.8	88	66.1	0	0	---	0.00	30.026 
02:30	69.8	69.8	69.8	88	66.1	0	0	---	0.00	30.034 
02:35	69.8	69.8	69.8	88	66.1	0	0	---	0.00	30.034 
02:40	69.9	69.9	69.9	88	66.2	0	0	---	0.00	30.034 
02:45	70.1	70.1	70.1	88	66.4	0	0	---	0.00	30.040 
02:50	70.3	70.3	70.3	88	66.6	0	0	---	0.00	30.040 
02:55	70.4	70.4	70.4	87	66.3	0	0	---	0.00	30.040 
03:00	70.4	70.4	70.4	87	66.3	0	0	---	0.00	30.041 
03:05	70.6	70.6	70.6	87	66.5	0	0	---	0.00	30.041 
03:10	70.6	70.6	70.6	87	66.5	0	0	---	0.00	30.041 
03:15	70.6	70.6	70.6	86	66.2	0	0	---	0.00	30.039 
03:20	70.9	70.9	70.9	86	66.5	0	1	292	0.00	30.039 
03:25	71.6	71.6	71.6	84	66.5	0	1	292	0.00	30.039 
03:30	72.1	72.1	72.1	83	66.6	0	2	292	0.00	30.036 
03:35	72.3	72.3	72.3	82	66.5	0	1	292	0.00	30.036 
03:40	72.3	72.3	72.3	82	66.5	0	1	292	0.00	30.036 
03:45	72.5	72.5	72.5	82	66.7	0	0	---	0.00	30.026 
03:50	72.5	72.5	72.5	83	67.0	0	0	---	0.00	30.026 
03:55	72.3	72.3	72.3	83	66.8	0	0	---	0.00	30.026 
04:00	72.1	72.1	72.1	84	67.0	0	0	---	0.00	30.034 
04:05	72.0	72.0	72.0	84	66.9	0	0	---	0.00	30.034 
04:10	71.8	71.8	71.8	85	67.0	0	1	292	0.00	30.034 
04:15	71.6	71.6	71.6	85	66.8	0	1	292	0.00	30.029 
04:20	71.5	71.5	71.5	86	67.1	0	0	---	0.00	30.029 
04:25	71.3	71.3	71.3	87	67.2	0	1	292	0.01	30.029 
04:30	71.1	71.1	71.1	87	67.0	0	0	---	0.00	30.018 
04:35	71.1	71.1	71.1	88	67.4	0	0	---	0.01	30.018 
04:40	70.9	70.9	70.9	88	67.2	0	0	---	0.00	30.018 
04:45	70.8	70.8	70.8	89	67.4	0	0	---	0.00	30.011 
04:50	70.6	70.6	70.6	89	67.2	0	0	---	0.00	30.011 
04:55	70.4	70.4	70.4	90	67.3	0	0	---	0.00	30.011 
05:00	70.4	70.4	70.4	90	67.3	0	0	---	0.00	30.012 
05:05	70.3	70.3	70.3	90	67.2	0	0	---	0.00	30.012 
05:10	70.3	70.3	70.3	91	67.5	0	1	292	0.00	30.012 
05:15	70.1	70.1	70.1	91	67.3	0	2	292	0.00	29.985 
05:20	70.1	70.1	70.1	91	67.3	0	2	292	0.00	29.985 
05:25	70.1	70.1	70.1	92	67.7	0	1	270	0.00	29.985 
05:30	69.9	69.9	69.9	92	67.5	0	2	270	0.00	29.974 
05:35	69.9	69.9	69.9	92	67.5	0	1	270	0.00	29.974 
05:40	69.9	69.9	69.9	92	67.5	0	0	---	0.00	29.974 
05:45	69.8	69.8	69.8	92	67.4	0	1	270	0.00	29.977 
05:50	69.8	69.8	69.8	92	67.4	0	0	---	0.00	29.977 
05:55	69.6	69.6	69.6	92	67.2	0	0	---	0.00	29.977 
06:00	69.6	69.6	69.6	92	67.2	0	1	270	0.00	29.974 
06:05	69.4	69.4	69.4	92	67.0	0	0	---	0.00	29.974 
06:10	69.4	69.4	69.4	92	67.0	0	0	---	0.00	29.974 
06:15	69.4	69.4	69.4	92	67.0	0	0	---	0.00	29.983 
06:20	69.3	69.3	69.3	92	66.9	0	0	---	0.00	29.983 
06:25	69.1	69.1	69.1	92	66.7	0	0	---	0.00	29.983 
06:30	69.1	69.1	69.1	92	66.7	0	0	---	0.00	29.990 
06:35	68.9	68.9	68.9	92	66.5	0	0	---	0.00	29.990 
06:40	68.9	68.9	68.9	92	66.5	0	0	---	0.00	29.990 
06:45	68.8	68.8	68.8	92	66.4	0	0	---	0.00	30.007 
06:50	68.8	68.8	68.8	93	66.7	0	0	---	0.00	30.007 
06:55	68.8	68.8	68.8	93	66.7	0	0	---	0.00	30.007 
07:00	68.6	68.6	68.6	93	66.5	0	0	---	0.00	30.009 
07:05	68.4	68.4	68.4	93	66.3	0	0	---	0.00	30.009 
07:10	68.4	68.4	68.4	93	66.3	0	0	---	0.00	30.009 
07:15	68.4	68.4	68.4	93	66.3	0	0	---	0.00	30.025 
07:20	68.4	68.4	68.4	93	66.3	0	0	---	0.00	30.025 
07:25	68.4	68.4	68.4	93	66.3	0	0	---	0.00	30.025 
07:30	68.4	68.4	68.4	94	66.6	0	0	---	0.00	30.027 
07:35	68.6	68.6	68.6	94	66.8	0	0	---	0.00	30.027 
07:40	68.6	68.6	68.6	94	66.8	0	0	---	0.01	30.027 
07:45	68.6	68.6	68.6	94	66.8	0	0	---	0.00	30.025 
07:50	68.8	68.8	68.8	94	67.0	0	0	---	0.00	30.025 
07:55	68.9	68.9	68.9	94	67.1	0	0	---	0.00	30.025 
08:00	69.1	69.1	69.1	94	67.3	0	0	---	0.00	30.029 
08:05	69.3	69.3	69.3	94	67.5	0	0	---	0.00	30.029 
08:10	69.4	69.4	69.4	94	67.6	0	0	---	0.00	30.029 
08:15	69.6	69.6	69.6	94	67.8	0	0	---	0.00	30.030 
08:20	69.8	69.8	69.8	94	68.0	0	0	---	0.00	30.030 
08:25	69.9	69.9	69.9	94	68.1	0	0	---	0.00	30.030 
08:30	70.1	70.1	70.1	94	68.3	0	0	---	0.00	30.033 
08:35	70.1	70.1	70.1	94	68.3	0	0	---	0.00	30.033 
08:40	70.3	70.3	70.3	93	68.2	0	0	---	0.00	30.033 
08:45	70.4	70.4	70.4	93	68.3	0	1	270	0.00	30.033 
08:50	70.4	70.4	70.4	93	68.3	0	1	270	0.00	30.033 
08:55	70.6	70.6	70.6	93	68.5	0	1	270	0.00	30.033 
09:00	70.8	70.8	70.8	93	68.7	0	0	---	0.00	30.030 
09:05	70.9	70.9	70.9	92	68.5	0	1	270	0.00	30.030 
09:10	71.1	71.1	71.1	92	68.7	0	1	270	0.00	30.030 
09:15	71.3	71.3	71.3	92	68.8	0	1	270	0.00	30.028 
09:20	71.6	71.6	71.6	92	69.1	0	1	270	0.00	30.028 
09:25	72.0	72.0	72.0	91	69.2	0	1	270	0.00	30.028 
09:30	72.5	72.5	72.5	90	69.4	0	2	270	0.00	30.032 
09:35	72.7	72.7	72.7	89	69.3	0	2	270	0.00	30.032 
09:40	73.0	73.0	73.0	88	69.2	0	1	270	0.00	30.032 
09:45	73.2	73.2	73.2	87	69.1	0	2	270	0.00	30.034 
09:50	73.2	73.2	73.2	86	68.7	0	2	270	0.00	30.034 
09:55	73.5	73.5	73.5	85	68.7	0	1	270	0.00	30.034 
10:00	73.7	73.7	73.7	84	68.6	0	2	270	0.00	30.028 
10:05	73.9	73.9	73.9	84	68.7	0	2	270	0.00	30.028 
10:10	74.2	74.2	74.2	83	68.7	0	4	270	0.00	30.028 
10:15	74.6	74.6	74.6	82	68.7	0	2	270	0.00	30.027 
10:20	74.9	74.9	74.9	81	68.7	0	3	270	0.00	30.027 
10:25	75.1	75.1	75.7	80	68.5	1	3	292	0.00	30.027 
10:30	75.4	75.4	76.2	79	68.4	1	2	292	0.00	30.026 
10:35	75.8	75.8	76.8	79	68.8	1	3	292	0.00	30.026 
10:40	76.0	76.0	77.2	77	68.3	1	3	292	0.00	30.026 
10:45	76.1	76.1	77.4	77	68.3	1	3	292	0.00	30.029 
10:50	76.3	76.3	77.7	76	68.2	1	4	315	0.00	30.029 
10:55	76.5	76.5	78.0	76	68.4	1	3	292	0.00	30.029 
11:00	76.7	76.7	78.2	76	68.5	1	3	270	0.00	30.036 
11:05	76.7	76.7	78.2	76	68.5	1	4	270	0.00	30.036 
11:10	76.8	76.8	78.4	76	68.6	1	3	270	0.00	30.036 
11:15	77.0	77.0	78.7	77	69.2	0	2	270	0.00	30.039 
11:20	77.0	77.0	78.7	76	68.8	0	2	270	0.00	30.039 
11:25	76.8	76.8	78.4	75	68.3	1	4	270	0.00	30.039 
11:30	76.7	76.7	78.3	75	68.2	2	4	270	0.00	30.043 
11:35	76.7	76.7	78.3	75	68.2	1	4	292	0.00	30.043 
11:40	76.7	76.7	78.2	76	68.5	1	4	292	0.00	30.043 
11:45	76.8	76.8	78.4	76	68.6	1	3	292	0.00	30.047 
11:50	77.0	77.0	78.7	76	68.8	1	2	248	0.00	30.047 
11:55	77.6	77.6	79.6	74	68.6	2	5	270	0.00	30.047 
12:00	78.1	78.1	80.3	73	68.7	2	5	270	0.00	30.047 
12:05	78.6	78.6	81.0	72	68.8	1	4	270	0.00	30.047 
12:10	79.0	79.0	81.6	72	69.2	2	4	248	0.00	30.047 
12:15	78.8	78.8	81.2	71	68.6	2	5	270	0.00	30.050 
12:20	78.3	78.3	80.5	71	68.1	2	5	270	0.00	30.050 
12:25	78.1	78.1	80.3	73	68.7	1	3	270	0.00	30.050 
12:30	77.9	77.9	80.0	73	68.5	1	3	270	0.00	30.054 
12:35	77.4	77.4	79.3	73	68.0	2	5	270	0.00	30.054 
12:40	77.0	77.0	78.7	74	68.1	2	4	270	0.00	30.054 
12:45	76.7	76.7	78.3	75	68.2	1	3	270	0.00	30.049 
12:50	76.3	76.3	77.7	76	68.2	2	4	270	0.00	30.049 
12:55	76.0	76.0	77.3	76	67.9	1	3	270	0.00	30.049 
13:00	75.6	75.6	76.7	77	67.9	1	2	270	0.00	30.056 
13:05	75.6	75.6	76.6	78	68.2	0	2	270	0.00	30.056 
13:10	75.4	75.4	76.3	78	68.0	0	3	270	0.00	30.056 
13:15	75.6	75.6	76.5	79	68.6	1	3	270	0.00	30.057 
13:20	75.6	75.6	76.5	79	68.6	1	4	270	0.00	30.057 
13:25	76.0	76.0	77.1	79	69.0	1	4	270	0.00	30.057 
13:30	76.1	76.1	77.2	79	69.1	1	3	270	0.00	30.057 
13:35	76.1	76.1	77.3	78	68.7	1	2	270	0.00	30.057 
13:40	76.1	76.1	77.2	79	69.1	1	2	270	0.00	30.057 
13:45	75.8	75.8	76.8	79	68.8	1	3	270	0.00	30.057 
13:50	75.8	75.8	76.8	79	68.8	0	2	270	0.00	30.057 
13:55	75.6	75.6	76.4	80	69.0	1	3	270	0.00	30.057 
14:00	75.6	75.6	76.4	80	69.0	0	2	270	0.00	30.056 
14:05	75.8	75.8	76.7	80	69.2	1	4	270	0.00	30.056 
14:10	76.0	76.0	77.0	80	69.4	0	4	270	0.00	30.056 
14:15	76.5	76.5	77.8	79	69.5	1	3	270	0.00	30.052 
14:20	76.8	76.8	78.3	79	69.8	1	3	270	0.00	30.052 
14:25	77.0	77.0	78.6	78	69.6	1	3	270	0.00	30.052 
14:30	77.4	77.4	79.3	78	70.0	1	4	270	0.00	30.050 
14:35	77.6	77.6	79.6	77	69.8	0	1	270	0.00	30.050 
14:40	77.7	77.7	79.7	77	69.9	1	3	270	0.00	30.050 
14:45	77.7	77.7	79.7	77	69.9	1	3	270	0.00	30.045 
14:50	77.6	77.6	79.6	77	69.8	1	3	270	0.00	30.045 
14:55	77.6	77.6	79.6	78	70.2	1	2	270	0.00	30.045 
15:00	77.4	77.4	79.3	78	70.0	2	3	270	0.00	30.052 
15:05	77.4	77.4	79.3	78	70.0	1	4	270	0.00	30.052 
15:10	77.2	77.2	78.9	79	70.2	1	3	270	0.00	30.052 
15:15	77.2	77.2	78.9	79	70.2	1	6	270	0.00	30.047 
15:20	77.0	77.0	78.6	79	70.0	1	5	270	0.00	30.047 
15:25	76.5	76.5	77.8	79	69.5	3	6	270	0.00	30.047 
15:30	75.8	75.8	76.8	79	68.8	3	6	270	0.00	30.041 
15:35	75.3	75.3	76.1	79	68.3	4	7	270	0.00	30.041 
15:40	75.1	75.1	75.7	80	68.5	3	6	270	0.00	30.041 
15:45	74.9	74.9	74.9	80	68.3	4	7	270	0.00	30.041 
15:50	74.9	74.9	74.9	81	68.7	2	5	292	0.00	30.041 
15:55	74.9	74.9	74.9	81	68.7	2	5	270	0.00	30.041 
16:00	74.7	74.7	74.7	80	68.1	3	9	292	0.00	30.038 
16:05	74.4	74.4	74.4	80	67.8	3	9	292	0.00	30.038 
16:10	74.0	74.0	74.0	80	67.4	3	8	338	0.00	30.038 
16:15	73.9	73.9	73.9	81	67.7	3	6	270	0.00	30.037 
16:20	73.7	73.7	73.7	81	67.5	3	12	292	0.00	30.037 
16:25	73.5	73.5	73.5	81	67.3	4	10	292	0.00	30.037 
16:30	73.3	73.3	73.3	81	67.1	3	7	338	0.00	30.039 
16:35	73.2	73.2	73.2	81	67.0	2	5	292	0.00	30.039 
16:40	73.2	73.2	73.2	82	67.4	3	7	270	0.00	30.039 
16:45	73.0	73.0	73.0	82	67.2	2	5	315	0.00	30.039 
16:50	72.8	72.8	72.8	82	67.0	2	6	315	0.00	30.039 
16:55	72.8	72.8	72.8	84	67.7	1	5	292	0.00	30.039 
17:00	72.8	72.8	72.8	84	67.7	1	3	292	0.00	30.038 
17:05	72.7	72.7	72.7	84	67.6	0	2	292	0.00	30.038 
17:10	72.7	72.7	72.7	83	67.2	0	2	292	0.00	30.038 
17:15	72.7	72.7	72.7	83	67.2	0	1	292	0.00	30.031 
17:20	72.7	72.7	72.7	83	67.2	0	1	292	0.00	30.031 
17:25	72.7	72.7	72.7	83	67.2	0	1	292	0.00	30.031 
17:30	72.5	72.5	72.5	83	67.0	0	1	292	0.00	30.031 
17:35	72.5	72.5	72.5	83	67.0	0	2	292	0.00	30.031 
17:40	72.3	72.3	72.3	84	67.2	0	2	292	0.00	30.031 
17:45	72.1	72.1	72.1	84	67.0	0	2	292	0.00	30.031 
17:50	72.0	72.0	72.0	84	66.9	0	3	292	0.00	30.031 
17:55	71.8	71.8	71.8	85	67.0	0	2	292	0.00	30.031 
18:00	71.6	71.6	71.6	86	67.2	0	1	292	0.00	30.028 
18:05	71.5	71.5	71.5	86	67.1	0	1	292	0.00	30.028 
18:10	71.5	71.5	71.5	86	67.1	0	1	292	0.00	30.028 
18:15	71.5	71.5	71.5	86	67.1	0	1	292	0.00	30.021 
18:20	71.5	71.5	71.5	86	67.1	0	0	---	0.00	30.021 
18:25	71.5	71.5	71.5	86	67.1	0	0	---	0.00	30.021 
18:30	71.5	71.5	71.5	87	67.4	0	1	292	0.00	30.025 
18:35	71.5	71.5	71.5	86	67.1	0	0	---	0.00	30.025 
18:40	71.5	71.5	71.5	86	67.1	0	0	---	0.00	30.025 
18:45	71.5	71.5	71.5	86	67.1	0	0	---	0.00	30.017 
18:50	71.5	71.5	71.5	86	67.1	0	0	---	0.00	30.017 
18:55	71.5	71.5	71.5	86	67.1	0	0	---	0.00	30.017 
19:00	71.5	71.5	71.5	87	67.4	0	0	---	0.00	30.010 
19:05	71.3	71.3	71.3	87	67.2	0	0	---	0.00	30.010 
19:10	71.3	71.3	71.3	87	67.2	0	0	---	0.00	30.010 
19:15	71.3	71.3	71.3	87	67.2	0	0	---	0.00	30.005 
19:20	71.3	71.3	71.3	87	67.2	0	0	---	0.00	30.005 
19:25	71.5	71.5	71.5	87	67.4	0	0	---	0.00	30.005 
19:30	71.5	71.5	71.5	87	67.4	0	1	292	0.00	29.999 
19:35	71.3	71.3	71.3	87	67.2	0	1	292	0.00	29.999 
19:40	71.5	71.5	71.5	87	67.4	0	1	292	0.00	29.999 
19:45	71.3	71.3	71.3	86	66.9	0	1	292	0.00	29.986 
19:50	71.3	71.3	71.3	86	66.9	0	0	---	0.00	29.986 
19:55	71.3	71.3	71.3	86	66.9	0	0	---	0.00	29.986 
20:00	71.3	71.3	71.3	86	66.9	0	0	---	0.00	29.987 
20:05	71.1	71.1	71.1	86	66.7	0	0	---	0.00	29.987 
20:10	70.9	70.9	70.9	86	66.5	0	0	---	0.00	29.987 
20:15	70.9	70.9	70.9	86	66.5	0	0	---	0.00	29.987 
20:20	70.8	70.8	70.8	86	66.4	0	0	---	0.00	29.987 
20:25	70.8	70.8	70.8	86	66.4	0	0	---	0.00	29.987 
20:30	70.6	70.6	70.6	86	66.2	0	0	---	0.00	29.986 
20:35	70.4	70.4	70.4	86	66.0	0	0	---	0.00	29.986 
20:40	70.3	70.3	70.3	87	66.2	0	0	---	0.00	29.986 
20:45	70.3	70.3	70.3	87	66.2	0	0	---	0.00	29.996 
20:50	70.1	70.1	70.1	88	66.4	0	0	---	0.00	29.996 
20:55	70.1	70.1	70.1	88	66.4	0	0	---	0.00	29.996 
21:00	69.9	69.9	69.9	88	66.2	0	0	---	0.00	29.991 
21:05	69.8	69.8	69.8	88	66.1	0	0	---	0.00	29.991 
21:10	69.8	69.8	69.8	88	66.1	0	0	---	0.00	29.991 
21:15	69.8	69.8	69.8	89	66.4	0	0	---	0.00	29.996 
21:20	69.6	69.6	69.6	89	66.2	0	0	---	0.00	29.996 
21:25	69.6	69.6	69.6	89	66.2	0	0	---	0.00	29.996 
21:30	69.6	69.6	69.6	89	66.2	0	1	292	0.00	30.006 
21:35	69.6	69.6	69.6	89	66.2	0	1	292	0.00	30.006 
21:40	69.8	69.8	69.8	89	66.4	0	1	292	0.00	30.006 
21:45	69.8	69.8	69.8	88	66.1	0	1	292	0.00	30.013 
21:50	69.9	69.9	69.9	89	66.5	1	2	292	0.00	30.013 
21:55	69.9	69.9	69.9	89	66.5	1	3	292	0.00	30.013 
22:00	69.9	69.9	69.9	89	66.5	1	3	292	0.00	30.020 
22:05	69.8	69.8	69.8	89	66.4	1	4	292	0.00	30.020 
22:10	69.8	69.8	69.8	90	66.7	1	3	292	0.00	30.020 
22:15	69.6	69.6	69.6	90	66.5	1	3	292	0.00	30.024 
22:20	69.6	69.6	69.6	90	66.5	1	4	315	0.00	30.024 
22:25	69.4	69.4	69.4	90	66.3	0	2	315	0.00	30.024 
22:30	69.4	69.4	69.4	90	66.3	1	3	315	0.00	30.027 
22:35	69.4	69.4	69.4	90	66.3	1	2	292	0.00	30.027 
22:40	69.4	69.4	69.4	90	66.3	0	2	292	0.00	30.027 
22:45	69.4	69.4	69.4	90	66.3	1	2	292	0.00	30.028 
22:50	69.4	69.4	69.4	90	66.3	0	1	292	0.00	30.028 
22:55	69.4	69.4	69.4	90	66.3	0	2	292	0.00	30.028 
23:00	69.4	69.4	69.4	90	66.3	1	2	292	0.00	30.028 
23:05	69.4	69.4	69.4	90	66.3	0	2	292	0.00	30.028 
23:10	69.4	69.4	69.4	90	66.3	1	2	292	0.00	30.028 
23:15	69.4	69.4	69.4	90	66.3	0	1	292	0.00	30.032 
23:20	69.4	69.4	69.4	90	66.3	0	1	292	0.00	30.032 
23:25	69.4	69.4	69.4	90	66.3	0	1	292	0.00	30.032 
23:30	69.4	69.4	69.4	90	66.3	0	1	292	0.00	30.039 
23:35	69.4	69.4	69.4	90	66.3	0	2	292	0.00	30.039 
23:40	69.4	69.4	69.4	90	66.3	0	1	292	0.00	30.039 
23:45	69.4	69.4	69.4	90	66.3	0	3	292	0.00	30.038 
23:50	69.4	69.4	69.4	90	66.3	0	2	292	0.00	30.038 
23:55	69.4	69.4	69.4	89	66.0	1	3	292	0.00	30.038 

CoCoRaHS
IN-AL-39
A2 Web Hosting
Creative Commons License
GoDaddy
search engine by freefind advanced

loaded 2018-11-22 06:17:20 • last modified 2010-11-18 10:43:29
Privacy PolicyDisclaimer
• wx.awcolley.com is powered by PmWiki v.2002016 •
• all content (unless otherwise noted) © 2018 A W Colley